sensor_id;sensor_type;location;lat;lon;timestamp;temperature;humidity
32865;DHT22;19219;44.500;11.188;2024-03-29T00:00:01;7.90;99.90
32865;DHT22;19219;44.500;11.188;2024-03-29T00:02:27;8.00;99.90
32865;DHT22;19219;44.500;11.188;2024-03-29T00:04:53;8.00;99.90
32865;DHT22;19219;44.500;11.188;2024-03-29T00:07:19;8.20;99.90
32865;DHT22;19219;44.500;11.188;2024-03-29T00:09:44;8.30;99.90
32865;DHT22;19219;44.500;11.188;2024-03-29T00:12:10;8.10;99.90
32865;DHT22;19219;44.500;11.188;2024-03-29T00:14:36;8.10;99.90
32865;DHT22;19219;44.500;11.188;2024-03-29T00:17:01;8.10;99.90
32865;DHT22;19219;44.500;11.188;2024-03-29T00:19:29;8.10;99.90
32865;DHT22;19219;44.500;11.188;2024-03-29T00:21:55;8.20;99.90
32865;DHT22;19219;44.500;11.188;2024-03-29T00:24:21;8.20;99.90
32865;DHT22;19219;44.500;11.188;2024-03-29T00:26:46;8.20;99.90
32865;DHT22;19219;44.500;11.188;2024-03-29T00:29:12;8.20;99.90
32865;DHT22;19219;44.500;11.188;2024-03-29T00:31:38;8.20;99.90
32865;DHT22;19219;44.500;11.188;2024-03-29T00:34:04;8.20;99.90
32865;DHT22;19219;44.500;11.188;2024-03-29T00:36:29;8.20;99.90
32865;DHT22;19219;44.500;11.188;2024-03-29T00:38:55;8.10;99.90
32865;DHT22;19219;44.500;11.188;2024-03-29T00:41:21;8.10;99.90
32865;DHT22;19219;44.500;11.188;2024-03-29T00:43:46;8.00;99.90
32865;DHT22;19219;44.500;11.188;2024-03-29T00:46:14;8.40;99.90
32865;DHT22;19219;44.500;11.188;2024-03-29T00:48:39;8.00;99.90
32865;DHT22;19219;44.500;11.188;2024-03-29T00:51:07;8.00;99.90
32865;DHT22;19219;44.500;11.188;2024-03-29T00:53:33;8.00;99.90
32865;DHT22;19219;44.500;11.188;2024-03-29T00:55:59;8.00;99.90
32865;DHT22;19219;44.500;11.188;2024-03-29T00:58:24;8.10;99.90
32865;DHT22;19219;44.500;11.188;2024-03-29T01:00:50;8.10;99.90
32865;DHT22;19219;44.500;11.188;2024-03-29T01:03:17;8.20;99.90
32865;DHT22;19219;44.500;11.188;2024-03-29T01:05:42;8.10;99.90
32865;DHT22;19219;44.500;11.188;2024-03-29T01:08:08;8.20;99.90
32865;DHT22;19219;44.500;11.188;2024-03-29T01:10:35;8.20;99.90
32865;DHT22;19219;44.500;11.188;2024-03-29T01:13:01;8.20;99.90
32865;DHT22;19219;44.500;11.188;2024-03-29T01:15:27;8.20;99.90
32865;DHT22;19219;44.500;11.188;2024-03-29T01:17:53;8.20;99.90
32865;DHT22;19219;44.500;11.188;2024-03-29T01:20:19;8.20;99.90
32865;DHT22;19219;44.500;11.188;2024-03-29T01:22:44;8.30;99.90
32865;DHT22;19219;44.500;11.188;2024-03-29T01:25:10;8.50;99.90
32865;DHT22;19219;44.500;11.188;2024-03-29T01:27:37;8.00;99.90
32865;DHT22;19219;44.500;11.188;2024-03-29T01:30:03;8.00;99.90
32865;DHT22;19219;44.500;11.188;2024-03-29T01:32:29;8.10;99.90
32865;DHT22;19219;44.500;11.188;2024-03-29T01:34:55;8.10;99.90
32865;DHT22;19219;44.500;11.188;2024-03-29T01:37:21;8.00;99.90
32865;DHT22;19219;44.500;11.188;2024-03-29T01:39:46;8.00;99.90
32865;DHT22;19219;44.500;11.188;2024-03-29T01:42:12;7.90;99.90
32865;DHT22;19219;44.500;11.188;2024-03-29T01:44:38;8.00;99.90
32865;DHT22;19219;44.500;11.188;2024-03-29T01:47:04;7.90;99.90
32865;DHT22;19219;44.500;11.188;2024-03-29T01:49:30;8.00;99.90
32865;DHT22;19219;44.500;11.188;2024-03-29T01:51:56;7.90;99.90
32865;DHT22;19219;44.500;11.188;2024-03-29T01:54:22;8.00;99.90
32865;DHT22;19219;44.500;11.188;2024-03-29T01:56:48;7.90;99.90
32865;DHT22;19219;44.500;11.188;2024-03-29T01:59:16;7.90;99.90
32865;DHT22;19219;44.500;11.188;2024-03-29T02:01:42;7.90;99.90
32865;DHT22;19219;44.500;11.188;2024-03-29T02:04:08;7.90;99.90
32865;DHT22;19219;44.500;11.188;2024-03-29T02:06:35;8.00;99.90
32865;DHT22;19219;44.500;11.188;2024-03-29T02:09:01;8.00;99.90
32865;DHT22;19219;44.500;11.188;2024-03-29T02:11:29;8.10;99.90
32865;DHT22;19219;44.500;11.188;2024-03-29T02:13:55;8.10;99.90
32865;DHT22;19219;44.500;11.188;2024-03-29T02:16:21;8.00;99.90
32865;DHT22;19219;44.500;11.188;2024-03-29T02:18:47;8.00;99.90
32865;DHT22;19219;44.500;11.188;2024-03-29T02:21:12;8.00;99.90
32865;DHT22;19219;44.500;11.188;2024-03-29T02:23:43;8.10;99.90
32865;DHT22;19219;44.500;11.188;2024-03-29T02:26:10;8.10;99.90
32865;DHT22;19219;44.500;11.188;2024-03-29T02:28:36;8.00;99.90
32865;DHT22;19219;44.500;11.188;2024-03-29T02:31:02;7.80;99.90
32865;DHT22;19219;44.500;11.188;2024-03-29T02:33:28;7.80;99.90
32865;DHT22;19219;44.500;11.188;2024-03-29T02:35:54;7.90;99.90
32865;DHT22;19219;44.500;11.188;2024-03-29T02:38:19;7.90;99.90
32865;DHT22;19219;44.500;11.188;2024-03-29T02:40:45;7.90;99.90
32865;DHT22;19219;44.500;11.188;2024-03-29T02:43:11;8.00;99.90
32865;DHT22;19219;44.500;11.188;2024-03-29T02:45:37;8.10;99.90
32865;DHT22;19219;44.500;11.188;2024-03-29T02:48:03;8.10;99.90
32865;DHT22;19219;44.500;11.188;2024-03-29T02:50:28;8.20;99.90
32865;DHT22;19219;44.500;11.188;2024-03-29T02:52:54;8.20;99.90
32865;DHT22;19219;44.500;11.188;2024-03-29T02:55:20;8.30;99.90
32865;DHT22;19219;44.500;11.188;2024-03-29T02:57:45;8.30;99.90
32865;DHT22;19219;44.500;11.188;2024-03-29T03:00:11;8.20;99.90
32865;DHT22;19219;44.500;11.188;2024-03-29T03:02:41;7.90;99.90
32865;DHT22;19219;44.500;11.188;2024-03-29T03:05:08;7.90;99.90
32865;DHT22;19219;44.500;11.188;2024-03-29T03:07:34;7.80;99.90
32865;DHT22;19219;44.500;11.188;2024-03-29T03:10:19;7.80;99.90
32865;DHT22;19219;44.500;11.188;2024-03-29T03:13:02;7.70;99.90
32865;DHT22;19219;44.500;11.188;2024-03-29T03:15:28;7.70;99.90
32865;DHT22;19219;44.500;11.188;2024-03-29T03:17:54;7.70;99.90
32865;DHT22;19219;44.500;11.188;2024-03-29T03:20:20;7.60;99.90
32865;DHT22;19219;44.500;11.188;2024-03-29T03:22:45;7.50;99.90
32865;DHT22;19219;44.500;11.188;2024-03-29T03:25:11;7.60;99.90
32865;DHT22;19219;44.500;11.188;2024-03-29T03:27:37;7.50;99.90
32865;DHT22;19219;44.500;11.188;2024-03-29T03:30:03;7.40;99.90
32865;DHT22;19219;44.500;11.188;2024-03-29T03:32:29;7.40;99.90
32865;DHT22;19219;44.500;11.188;2024-03-29T03:34:54;7.50;99.90
32865;DHT22;19219;44.500;11.188;2024-03-29T03:37:20;7.60;99.90
32865;DHT22;19219;44.500;11.188;2024-03-29T03:39:46;7.70;99.90
32865;DHT22;19219;44.500;11.188;2024-03-29T03:42:11;7.70;99.90
32865;DHT22;19219;44.500;11.188;2024-03-29T03:44:37;7.90;99.90
32865;DHT22;19219;44.500;11.188;2024-03-29T03:47:03;7.90;99.90
32865;DHT22;19219;44.500;11.188;2024-03-29T03:49:29;7.90;99.90
32865;DHT22;19219;44.500;11.188;2024-03-29T03:51:54;7.90;99.90
32865;DHT22;19219;44.500;11.188;2024-03-29T03:54:20;7.90;99.90
32865;DHT22;19219;44.500;11.188;2024-03-29T03:56:46;7.90;99.90
32865;DHT22;19219;44.500;11.188;2024-03-29T03:59:13;7.90;99.90
32865;DHT22;19219;44.500;11.188;2024-03-29T04:01:39;7.80;99.90
32865;DHT22;19219;44.500;11.188;2024-03-29T04:04:05;7.60;99.90
32865;DHT22;19219;44.500;11.188;2024-03-29T04:06:30;7.50;99.90
32865;DHT22;19219;44.500;11.188;2024-03-29T04:08:56;7.40;99.90
32865;DHT22;19219;44.500;11.188;2024-03-29T04:11:22;7.50;99.90
32865;DHT22;19219;44.500;11.188;2024-03-29T04:13:47;7.60;99.90
32865;DHT22;19219;44.500;11.188;2024-03-29T04:16:13;7.50;99.90
32865;DHT22;19219;44.500;11.188;2024-03-29T04:18:39;7.50;99.90
32865;DHT22;19219;44.500;11.188;2024-03-29T04:21:05;7.60;99.90
32865;DHT22;19219;44.500;11.188;2024-03-29T04:23:30;7.70;99.90
32865;DHT22;19219;44.500;11.188;2024-03-29T04:25:57;7.90;99.90
32865;DHT22;19219;44.500;11.188;2024-03-29T04:28:24;8.00;99.90
32865;DHT22;19219;44.500;11.188;2024-03-29T04:30:56;8.10;99.90
32865;DHT22;19219;44.500;11.188;2024-03-29T04:33:22;8.20;99.90
32865;DHT22;19219;44.500;11.188;2024-03-29T04:35:57;8.10;99.90
32865;DHT22;19219;44.500;11.188;2024-03-29T04:38:24;8.10;99.90
32865;DHT22;19219;44.500;11.188;2024-03-29T04:40:52;8.00;99.90
32865;DHT22;19219;44.500;11.188;2024-03-29T04:43:20;8.00;99.90
32865;DHT22;19219;44.500;11.188;2024-03-29T04:45:46;7.90;99.90
32865;DHT22;19219;44.500;11.188;2024-03-29T04:48:12;8.00;99.90
32865;DHT22;19219;44.500;11.188;2024-03-29T04:50:38;7.90;99.90
32865;DHT22;19219;44.500;11.188;2024-03-29T04:53:04;7.80;99.90
32865;DHT22;19219;44.500;11.188;2024-03-29T04:55:30;7.90;99.90
32865;DHT22;19219;44.500;11.188;2024-03-29T04:57:56;7.90;99.90
32865;DHT22;19219;44.500;11.188;2024-03-29T05:00:22;7.90;99.90
32865;DHT22;19219;44.500;11.188;2024-03-29T05:02:47;7.80;99.90
32865;DHT22;19219;44.500;11.188;2024-03-29T05:05:13;7.60;99.90
32865;DHT22;19219;44.500;11.188;2024-03-29T05:07:39;7.60;99.90
32865;DHT22;19219;44.500;11.188;2024-03-29T05:10:05;7.60;99.90
32865;DHT22;19219;44.500;11.188;2024-03-29T05:12:35;7.60;99.90
32865;DHT22;19219;44.500;11.188;2024-03-29T05:15:01;7.60;99.90
32865;DHT22;19219;44.500;11.188;2024-03-29T05:17:27;7.70;99.90
32865;DHT22;19219;44.500;11.188;2024-03-29T05:19:56;7.70;99.90
32865;DHT22;19219;44.500;11.188;2024-03-29T05:22:22;7.70;99.90
32865;DHT22;19219;44.500;11.188;2024-03-29T05:24:47;7.80;99.90
32865;DHT22;19219;44.500;11.188;2024-03-29T05:27:13;7.80;99.90
32865;DHT22;19219;44.500;11.188;2024-03-29T05:29:39;7.90;99.90
32865;DHT22;19219;44.500;11.188;2024-03-29T05:32:06;7.90;99.90
32865;DHT22;19219;44.500;11.188;2024-03-29T05:34:32;8.00;99.90
32865;DHT22;19219;44.500;11.188;2024-03-29T05:36:58;8.10;99.90
32865;DHT22;19219;44.500;11.188;2024-03-29T05:39:23;8.20;99.90
32865;DHT22;19219;44.500;11.188;2024-03-29T05:41:49;8.30;99.90
32865;DHT22;19219;44.500;11.188;2024-03-29T05:44:15;8.20;99.90
32865;DHT22;19219;44.500;11.188;2024-03-29T05:46:41;8.20;99.90
32865;DHT22;19219;44.500;11.188;2024-03-29T05:49:07;8.20;99.90
32865;DHT22;19219;44.500;11.188;2024-03-29T05:51:33;8.20;99.90
32865;DHT22;19219;44.500;11.188;2024-03-29T05:54:01;8.20;99.90
32865;DHT22;19219;44.500;11.188;2024-03-29T05:56:29;8.20;99.90
32865;DHT22;19219;44.500;11.188;2024-03-29T05:58:55;8.40;99.90
32865;DHT22;19219;44.500;11.188;2024-03-29T06:01:21;8.40;99.90
32865;DHT22;19219;44.500;11.188;2024-03-29T06:03:48;8.40;99.90
32865;DHT22;19219;44.500;11.188;2024-03-29T06:06:17;8.50;99.90
32865;DHT22;19219;44.500;11.188;2024-03-29T06:08:46;8.50;99.90
32865;DHT22;19219;44.500;11.188;2024-03-29T06:11:11;8.60;99.90
32865;DHT22;19219;44.500;11.188;2024-03-29T06:13:37;8.60;99.90
32865;DHT22;19219;44.500;11.188;2024-03-29T06:16:19;8.70;99.90
32865;DHT22;19219;44.500;11.188;2024-03-29T06:19:03;8.70;99.90
32865;DHT22;19219;44.500;11.188;2024-03-29T06:21:29;8.70;99.90
32865;DHT22;19219;44.500;11.188;2024-03-29T06:23:58;8.80;99.90
32865;DHT22;19219;44.500;11.188;2024-03-29T06:26:23;8.80;99.90
32865;DHT22;19219;44.500;11.188;2024-03-29T06:28:49;8.90;99.90
32865;DHT22;19219;44.500;11.188;2024-03-29T06:31:15;8.90;99.90
32865;DHT22;19219;44.500;11.188;2024-03-29T06:33:41;8.80;99.90
32865;DHT22;19219;44.500;11.188;2024-03-29T06:36:07;8.90;99.90
32865;DHT22;19219;44.500;11.188;2024-03-29T06:38:32;8.90;99.90
32865;DHT22;19219;44.500;11.188;2024-03-29T06:40:58;8.90;99.90
32865;DHT22;19219;44.500;11.188;2024-03-29T06:43:24;9.00;99.90
32865;DHT22;19219;44.500;11.188;2024-03-29T06:45:49;9.00;99.90
32865;DHT22;19219;44.500;11.188;2024-03-29T06:48:15;9.00;99.90
32865;DHT22;19219;44.500;11.188;2024-03-29T06:50:41;9.00;99.90
32865;DHT22;19219;44.500;11.188;2024-03-29T06:53:07;9.10;99.90
32865;DHT22;19219;44.500;11.188;2024-03-29T06:55:34;9.20;99.90
32865;DHT22;19219;44.500;11.188;2024-03-29T06:58:02;9.30;99.90
32865;DHT22;19219;44.500;11.188;2024-03-29T07:00:28;9.40;99.90
32865;DHT22;19219;44.500;11.188;2024-03-29T07:02:54;9.60;99.90
32865;DHT22;19219;44.500;11.188;2024-03-29T07:05:20;9.80;99.90
32865;DHT22;19219;44.500;11.188;2024-03-29T07:07:45;9.90;99.90
32865;DHT22;19219;44.500;11.188;2024-03-29T07:10:12;10.10;99.90
32865;DHT22;19219;44.500;11.188;2024-03-29T07:12:38;10.10;99.90
32865;DHT22;19219;44.500;11.188;2024-03-29T07:15:04;10.20;99.90
32865;DHT22;19219;44.500;11.188;2024-03-29T07:17:30;10.20;99.90
32865;DHT22;19219;44.500;11.188;2024-03-29T07:19:56;10.20;99.90
32865;DHT22;19219;44.500;11.188;2024-03-29T07:22:22;10.00;99.90
32865;DHT22;19219;44.500;11.188;2024-03-29T07:24:47;10.00;99.90
32865;DHT22;19219;44.500;11.188;2024-03-29T07:27:13;10.00;99.90
32865;DHT22;19219;44.500;11.188;2024-03-29T07:29:42;10.00;99.90
32865;DHT22;19219;44.500;11.188;2024-03-29T07:32:09;10.10;99.90
32865;DHT22;19219;44.500;11.188;2024-03-29T07:34:35;10.10;99.90
32865;DHT22;19219;44.500;11.188;2024-03-29T07:37:01;10.10;99.90
32865;DHT22;19219;44.500;11.188;2024-03-29T07:39:27;10.20;99.90
32865;DHT22;19219;44.500;11.188;2024-03-29T07:41:53;10.30;99.90
32865;DHT22;19219;44.500;11.188;2024-03-29T07:44:18;10.30;99.90
32865;DHT22;19219;44.500;11.188;2024-03-29T07:46:44;10.50;99.90
32865;DHT22;19219;44.500;11.188;2024-03-29T07:49:12;10.60;99.90
32865;DHT22;19219;44.500;11.188;2024-03-29T07:51:38;10.70;99.90
32865;DHT22;19219;44.500;11.188;2024-03-29T07:54:04;10.70;99.90
32865;DHT22;19219;44.500;11.188;2024-03-29T07:56:30;10.80;99.90
32865;DHT22;19219;44.500;11.188;2024-03-29T07:58:56;10.80;99.90
32865;DHT22;19219;44.500;11.188;2024-03-29T08:01:23;10.90;99.90
32865;DHT22;19219;44.500;11.188;2024-03-29T08:03:52;10.90;99.90
32865;DHT22;19219;44.500;11.188;2024-03-29T08:06:21;10.90;99.90
32865;DHT22;19219;44.500;11.188;2024-03-29T08:08:52;11.10;99.90
32865;DHT22;19219;44.500;11.188;2024-03-29T08:11:17;11.20;99.90
32865;DHT22;19219;44.500;11.188;2024-03-29T08:13:44;11.30;99.90
32865;DHT22;19219;44.500;11.188;2024-03-29T08:16:10;11.40;99.90
32865;DHT22;19219;44.500;11.188;2024-03-29T08:18:36;11.40;99.90
32865;DHT22;19219;44.500;11.188;2024-03-29T08:21:03;11.50;99.90
32865;DHT22;19219;44.500;11.188;2024-03-29T08:23:29;11.60;99.90
32865;DHT22;19219;44.500;11.188;2024-03-29T08:25:54;11.90;99.90
32865;DHT22;19219;44.500;11.188;2024-03-29T08:28:22;12.10;99.90
32865;DHT22;19219;44.500;11.188;2024-03-29T08:31:02;12.20;99.90
32865;DHT22;19219;44.500;11.188;2024-03-29T08:33:28;12.40;99.90
32865;DHT22;19219;44.500;11.188;2024-03-29T08:35:54;12.50;99.90
32865;DHT22;19219;44.500;11.188;2024-03-29T08:38:19;12.40;99.90
32865;DHT22;19219;44.500;11.188;2024-03-29T08:40:45;12.50;99.90
32865;DHT22;19219;44.500;11.188;2024-03-29T08:43:16;12.40;99.90
32865;DHT22;19219;44.500;11.188;2024-03-29T08:45:46;12.50;99.90
32865;DHT22;19219;44.500;11.188;2024-03-29T08:48:12;12.10;99.90
32865;DHT22;19219;44.500;11.188;2024-03-29T08:50:38;12.20;99.90
32865;DHT22;19219;44.500;11.188;2024-03-29T08:53:04;12.20;99.90
32865;DHT22;19219;44.500;11.188;2024-03-29T08:55:30;12.10;99.90
32865;DHT22;19219;44.500;11.188;2024-03-29T08:58:00;12.20;99.90
32865;DHT22;19219;44.500;11.188;2024-03-29T09:00:27;12.20;99.90
32865;DHT22;19219;44.500;11.188;2024-03-29T09:02:53;12.40;99.90
32865;DHT22;19219;44.500;11.188;2024-03-29T09:05:19;12.40;99.90
32865;DHT22;19219;44.500;11.188;2024-03-29T09:07:45;12.50;99.90
32865;DHT22;19219;44.500;11.188;2024-03-29T09:10:12;12.60;99.90
32865;DHT22;19219;44.500;11.188;2024-03-29T09:12:38;12.80;99.90
32865;DHT22;19219;44.500;11.188;2024-03-29T09:15:04;12.90;99.90
32865;DHT22;19219;44.500;11.188;2024-03-29T09:17:34;13.20;99.90
32865;DHT22;19219;44.500;11.188;2024-03-29T09:20:00;13.20;99.90
32865;DHT22;19219;44.500;11.188;2024-03-29T09:22:26;13.70;99.90
32865;DHT22;19219;44.500;11.188;2024-03-29T09:24:52;14.00;99.90
32865;DHT22;19219;44.500;11.188;2024-03-29T09:27:18;14.20;99.90
32865;DHT22;19219;44.500;11.188;2024-03-29T09:29:48;14.50;99.90
32865;DHT22;19219;44.500;11.188;2024-03-29T09:32:14;15.00;99.90
32865;DHT22;19219;44.500;11.188;2024-03-29T09:34:43;15.10;99.90
32865;DHT22;19219;44.500;11.188;2024-03-29T09:37:09;15.20;99.90
32865;DHT22;19219;44.500;11.188;2024-03-29T09:39:35;15.30;99.90
32865;DHT22;19219;44.500;11.188;2024-03-29T09:42:02;15.60;99.90
32865;DHT22;19219;44.500;11.188;2024-03-29T09:44:33;15.70;99.90
32865;DHT22;19219;44.500;11.188;2024-03-29T09:47:06;16.10;99.90
32865;DHT22;19219;44.500;11.188;2024-03-29T09:49:32;16.60;99.90
32865;DHT22;19219;44.500;11.188;2024-03-29T09:52:01;16.70;99.90
32865;DHT22;19219;44.500;11.188;2024-03-29T09:54:30;17.20;99.90
32865;DHT22;19219;44.500;11.188;2024-03-29T09:56:59;17.60;99.90
32865;DHT22;19219;44.500;11.188;2024-03-29T09:59:25;17.90;99.90
32865;DHT22;19219;44.500;11.188;2024-03-29T10:01:54;17.90;99.90
32865;DHT22;19219;44.500;11.188;2024-03-29T10:04:22;18.10;99.90
32865;DHT22;19219;44.500;11.188;2024-03-29T10:06:49;18.10;99.90
32865;DHT22;19219;44.500;11.188;2024-03-29T10:09:19;18.40;99.90
32865;DHT22;19219;44.500;11.188;2024-03-29T10:11:46;18.60;99.90
32865;DHT22;19219;44.500;11.188;2024-03-29T10:14:12;18.80;99.90
32865;DHT22;19219;44.500;11.188;2024-03-29T10:16:38;19.10;99.90
32865;DHT22;19219;44.500;11.188;2024-03-29T10:19:04;19.30;99.90
32865;DHT22;19219;44.500;11.188;2024-03-29T10:21:32;19.60;99.90
32865;DHT22;19219;44.500;11.188;2024-03-29T10:23:57;19.50;99.90
32865;DHT22;19219;44.500;11.188;2024-03-29T10:26:23;19.70;99.90
32865;DHT22;19219;44.500;11.188;2024-03-29T10:28:50;19.90;99.90
32865;DHT22;19219;44.500;11.188;2024-03-29T10:31:17;19.80;99.90
32865;DHT22;19219;44.500;11.188;2024-03-29T10:33:45;19.80;99.90
32865;DHT22;19219;44.500;11.188;2024-03-29T10:36:10;19.90;99.90
32865;DHT22;19219;44.500;11.188;2024-03-29T10:38:38;19.70;99.90
32865;DHT22;19219;44.500;11.188;2024-03-29T10:41:04;19.50;99.90
32865;DHT22;19219;44.500;11.188;2024-03-29T10:43:32;19.50;99.90
32865;DHT22;19219;44.500;11.188;2024-03-29T10:46:00;19.70;99.90
32865;DHT22;19219;44.500;11.188;2024-03-29T10:48:26;19.70;99.90
32865;DHT22;19219;44.500;11.188;2024-03-29T10:50:54;20.10;99.90
32865;DHT22;19219;44.500;11.188;2024-03-29T10:53:23;20.30;99.90
32865;DHT22;19219;44.500;11.188;2024-03-29T10:55:50;20.50;99.90
32865;DHT22;19219;44.500;11.188;2024-03-29T10:58:17;20.60;99.90
32865;DHT22;19219;44.500;11.188;2024-03-29T11:00:48;20.80;99.90
32865;DHT22;19219;44.500;11.188;2024-03-29T11:03:30;21.10;99.90
32865;DHT22;19219;44.500;11.188;2024-03-29T11:06:03;21.30;99.90
32865;DHT22;19219;44.500;11.188;2024-03-29T11:08:35;21.70;99.90
32865;DHT22;19219;44.500;11.188;2024-03-29T11:11:05;21.70;99.90
32865;DHT22;19219;44.500;11.188;2024-03-29T11:13:56;22.00;99.90
32865;DHT22;19219;44.500;11.188;2024-03-29T11:16:23;22.40;99.90
32865;DHT22;19219;44.500;11.188;2024-03-29T11:18:51;22.50;99.90
32865;DHT22;19219;44.500;11.188;2024-03-29T11:21:18;22.50;99.90
32865;DHT22;19219;44.500;11.188;2024-03-29T11:23:49;22.50;99.90
32865;DHT22;19219;44.500;11.188;2024-03-29T11:26:16;22.50;99.90
32865;DHT22;19219;44.500;11.188;2024-03-29T11:28:48;22.20;99.90
32865;DHT22;19219;44.500;11.188;2024-03-29T11:31:15;22.20;99.90
32865;DHT22;19219;44.500;11.188;2024-03-29T11:36:16;22.10;99.90
32865;DHT22;19219;44.500;11.188;2024-03-29T11:38:43;22.20;99.90
32865;DHT22;19219;44.500;11.188;2024-03-29T11:43:37;22.10;99.90
32865;DHT22;19219;44.500;11.188;2024-03-29T11:46:07;22.10;99.90
32865;DHT22;19219;44.500;11.188;2024-03-29T11:48:34;22.10;99.90
32865;DHT22;19219;44.500;11.188;2024-03-29T11:51:05;22.30;99.90
32865;DHT22;19219;44.500;11.188;2024-03-29T11:53:32;22.40;99.90
32865;DHT22;19219;44.500;11.188;2024-03-29T11:55:58;22.40;99.90
32865;DHT22;19219;44.500;11.188;2024-03-29T11:58:26;22.40;99.90
32865;DHT22;19219;44.500;11.188;2024-03-29T12:00:52;22.50;99.90
32865;DHT22;19219;44.500;11.188;2024-03-29T12:03:20;22.60;99.90
32865;DHT22;19219;44.500;11.188;2024-03-29T12:05:48;22.60;99.90
32865;DHT22;19219;44.500;11.188;2024-03-29T12:08:15;22.60;99.90
32865;DHT22;19219;44.500;11.188;2024-03-29T12:10:41;22.30;99.90
32865;DHT22;19219;44.500;11.188;2024-03-29T12:13:08;22.30;99.90
32865;DHT22;19219;44.500;11.188;2024-03-29T12:15:35;22.30;99.90
32865;DHT22;19219;44.500;11.188;2024-03-29T12:18:01;22.20;99.90
32865;DHT22;19219;44.500;11.188;2024-03-29T12:20:32;22.10;99.90
32865;DHT22;19219;44.500;11.188;2024-03-29T12:23:02;22.20;99.90
32865;DHT22;19219;44.500;11.188;2024-03-29T12:25:28;22.30;99.90
32865;DHT22;19219;44.500;11.188;2024-03-29T12:27:54;22.50;99.90
32865;DHT22;19219;44.500;11.188;2024-03-29T12:30:20;22.60;99.90
32865;DHT22;19219;44.500;11.188;2024-03-29T12:32:46;22.50;99.90
32865;DHT22;19219;44.500;11.188;2024-03-29T12:35:14;22.40;99.90
32865;DHT22;19219;44.500;11.188;2024-03-29T12:37:50;22.40;99.90
32865;DHT22;19219;44.500;11.188;2024-03-29T12:40:17;22.50;99.90
32865;DHT22;19219;44.500;11.188;2024-03-29T12:42:50;22.60;99.90
32865;DHT22;19219;44.500;11.188;2024-03-29T12:45:18;22.60;99.90
32865;DHT22;19219;44.500;11.188;2024-03-29T12:47:48;22.60;99.90
32865;DHT22;19219;44.500;11.188;2024-03-29T12:52:56;22.80;99.90
32865;DHT22;19219;44.500;11.188;2024-03-29T12:55:23;22.70;99.90
32865;DHT22;19219;44.500;11.188;2024-03-29T12:57:50;22.60;99.90
32865;DHT22;19219;44.500;11.188;2024-03-29T13:00:21;22.50;99.50
32865;DHT22;19219;44.500;11.188;2024-03-29T13:02:47;22.50;99.90
32865;DHT22;19219;44.500;11.188;2024-03-29T13:05:12;22.40;99.90
32865;DHT22;19219;44.500;11.188;2024-03-29T13:07:38;22.30;99.90
32865;DHT22;19219;44.500;11.188;2024-03-29T13:10:04;22.20;99.10
32865;DHT22;19219;44.500;11.188;2024-03-29T13:12:42;22.10;99.20
32865;DHT22;19219;44.500;11.188;2024-03-29T13:15:24;22.10;99.90
32865;DHT22;19219;44.500;11.188;2024-03-29T13:17:51;22.20;99.90
32865;DHT22;19219;44.500;11.188;2024-03-29T13:20:18;22.30;99.90
32865;DHT22;19219;44.500;11.188;2024-03-29T13:22:48;22.40;99.90
32865;DHT22;19219;44.500;11.188;2024-03-29T13:25:16;22.40;99.90
32865;DHT22;19219;44.500;11.188;2024-03-29T13:27:45;22.50;98.90
32865;DHT22;19219;44.500;11.188;2024-03-29T13:30:12;22.50;99.30
32865;DHT22;19219;44.500;11.188;2024-03-29T13:32:41;22.30;99.10
32865;DHT22;19219;44.500;11.188;2024-03-29T13:35:11;22.10;99.20
32865;DHT22;19219;44.500;11.188;2024-03-29T13:37:43;22.00;99.90
32865;DHT22;19219;44.500;11.188;2024-03-29T13:40:11;22.10;99.30
32865;DHT22;19219;44.500;11.188;2024-03-29T13:42:38;22.30;99.70
32865;DHT22;19219;44.500;11.188;2024-03-29T13:45:05;22.40;99.40
32865;DHT22;19219;44.500;11.188;2024-03-29T13:47:32;22.50;99.30
32865;DHT22;19219;44.500;11.188;2024-03-29T13:49:58;22.60;99.90
32865;DHT22;19219;44.500;11.188;2024-03-29T13:52:24;22.60;99.40
32865;DHT22;19219;44.500;11.188;2024-03-29T13:54:52;22.50;99.40
32865;DHT22;19219;44.500;11.188;2024-03-29T13:57:18;22.50;98.40
32865;DHT22;19219;44.500;11.188;2024-03-29T13:59:44;22.50;99.20
32865;DHT22;19219;44.500;11.188;2024-03-29T14:02:12;22.60;98.70
32865;DHT22;19219;44.500;11.188;2024-03-29T14:04:39;22.60;99.10
32865;DHT22;19219;44.500;11.188;2024-03-29T14:07:05;22.60;99.60
32865;DHT22;19219;44.500;11.188;2024-03-29T14:09:39;22.60;99.60
32865;DHT22;19219;44.500;11.188;2024-03-29T14:12:06;22.60;99.60
32865;DHT22;19219;44.500;11.188;2024-03-29T14:14:32;22.60;99.10
32865;DHT22;19219;44.500;11.188;2024-03-29T14:16:58;22.80;98.70
32865;DHT22;19219;44.500;11.188;2024-03-29T14:19:24;22.80;98.20
32865;DHT22;19219;44.500;11.188;2024-03-29T14:21:52;22.80;97.80
32865;DHT22;19219;44.500;11.188;2024-03-29T14:24:17;22.90;98.50
32865;DHT22;19219;44.500;11.188;2024-03-29T14:26:43;22.90;98.20
32865;DHT22;19219;44.500;11.188;2024-03-29T14:29:09;23.00;97.80
32865;DHT22;19219;44.500;11.188;2024-03-29T14:31:37;23.00;97.40
32865;DHT22;19219;44.500;11.188;2024-03-29T14:34:03;23.00;97.90
32865;DHT22;19219;44.500;11.188;2024-03-29T14:36:28;23.10;98.10
32865;DHT22;19219;44.500;11.188;2024-03-29T14:38:58;23.20;98.30
32865;DHT22;19219;44.500;11.188;2024-03-29T14:41:26;23.30;97.50
32865;DHT22;19219;44.500;11.188;2024-03-29T14:43:52;23.40;98.00
32865;DHT22;19219;44.500;11.188;2024-03-29T14:46:19;22.80;99.90
32865;DHT22;19219;44.500;11.188;2024-03-29T14:48:46;22.20;99.90
32865;DHT22;19219;44.500;11.188;2024-03-29T14:51:12;21.60;99.90
32865;DHT22;19219;44.500;11.188;2024-03-29T14:53:38;21.30;99.90
32865;DHT22;19219;44.500;11.188;2024-03-29T14:56:04;20.90;99.90
32865;DHT22;19219;44.500;11.188;2024-03-29T14:58:30;20.80;99.90
32865;DHT22;19219;44.500;11.188;2024-03-29T15:00:56;20.70;99.90
32865;DHT22;19219;44.500;11.188;2024-03-29T15:03:22;20.60;99.90
32865;DHT22;19219;44.500;11.188;2024-03-29T15:05:49;20.50;99.90
32865;DHT22;19219;44.500;11.188;2024-03-29T15:08:15;20.50;99.90
32865;DHT22;19219;44.500;11.188;2024-03-29T15:10:43;20.40;99.90
32865;DHT22;19219;44.500;11.188;2024-03-29T15:13:09;20.40;99.90
32865;DHT22;19219;44.500;11.188;2024-03-29T15:15:35;20.40;99.90
32865;DHT22;19219;44.500;11.188;2024-03-29T15:18:05;20.30;99.90
32865;DHT22;19219;44.500;11.188;2024-03-29T15:20:34;20.30;99.90
32865;DHT22;19219;44.500;11.188;2024-03-29T15:22:59;20.20;99.90
32865;DHT22;19219;44.500;11.188;2024-03-29T15:25:25;20.10;99.90
32865;DHT22;19219;44.500;11.188;2024-03-29T15:27:51;20.10;99.90